createdAt,value
2022-12-23T00:01:23.113Z,7.70
2022-12-23T00:06:25.195Z,10.15
2022-12-23T00:11:27.708Z,10.95
2022-12-23T00:16:29.526Z,10.65
2022-12-23T00:21:31.035Z,6.70
2022-12-23T00:26:32.431Z,10.65
2022-12-23T00:31:33.850Z,12.95
2022-12-23T00:36:37.500Z,12.10
2022-12-23T00:41:57.749Z,13.25
2022-12-23T00:46:59.183Z,13.27
2022-12-23T00:52:01.263Z,11.90
2022-12-23T00:57:03.660Z,11.13
2022-12-23T01:02:23.587Z,10.82
2022-12-23T01:07:25.484Z,10.30
2022-12-23T01:12:27.332Z,8.80
2022-12-23T01:17:28.833Z,11.98
2022-12-23T01:22:30.272Z,5.68
2022-12-23T01:27:31.761Z,10.80
2022-12-23T01:32:33.350Z,10.57
2022-12-23T01:37:34.873Z,8.85
2022-12-23T01:42:45.452Z,10.77
2022-12-23T01:48:05.429Z,9.27
2022-12-23T01:53:15.210Z,11.80
2022-12-23T01:58:27.743Z,10.00
2022-12-23T02:03:44.614Z,10.15
2022-12-23T02:09:04.866Z,8.63
2022-12-23T02:14:59.903Z,9.75
2022-12-23T02:20:38.825Z,10.80
2022-12-23T02:26:02.116Z,10.10
2022-12-23T02:31:13.681Z,12.13
2022-12-23T02:36:44.380Z,10.90
2022-12-23T02:41:57.536Z,12.05
2022-12-23T02:47:09.906Z,12.43
2022-12-23T02:52:17.208Z,12.73
2022-12-23T02:57:26.258Z,13.85
2022-12-23T03:02:27.836Z,14.10
2022-12-23T03:07:39.062Z,14.32
2022-12-23T03:13:07.289Z,12.80
2022-12-23T03:18:23.442Z,8.27
2022-12-23T03:23:38.992Z,8.85
2022-12-23T03:28:53.155Z,8.65
2022-12-23T03:34:04.082Z,7.40
2022-12-23T03:39:10.592Z,6.72
2022-12-23T03:44:27.256Z,6.57
2022-12-23T03:49:37.986Z,5.75
2022-12-23T03:54:53.702Z,6.32
2022-12-23T03:59:55.621Z,6.88
2022-12-23T04:05:13.903Z,6.40
2022-12-23T04:10:16.034Z,6.50
2022-12-23T04:15:26.076Z,7.18
2022-12-23T04:20:27.483Z,6.40
2022-12-23T04:25:28.915Z,7.05
2022-12-23T04:30:34.432Z,7.60
2022-12-23T04:35:36.362Z,7.80
2022-12-23T04:40:37.780Z,8.75
2022-12-23T04:45:39.205Z,6.15
2022-12-23T04:50:40.722Z,8.70
2022-12-23T04:55:42.225Z,8.20
2022-12-23T05:00:43.903Z,8.35
2022-12-23T05:05:45.799Z,9.10
2022-12-23T05:10:47.261Z,9.63
2022-12-23T05:15:53.671Z,9.48
2022-12-23T05:20:55.109Z,8.93
2022-12-23T05:25:56.541Z,8.13
2022-12-23T05:31:06.596Z,7.30
2022-12-23T05:36:09.078Z,8.82
2022-12-23T05:41:10.508Z,8.55
2022-12-23T05:46:12.140Z,8.77
2022-12-23T05:51:13.709Z,8.32
2022-12-23T05:56:16.632Z,9.07
2022-12-23T06:01:18.074Z,8.00
2022-12-23T06:06:19.516Z,8.45
2022-12-23T06:11:20.966Z,7.85
2022-12-23T06:16:22.471Z,8.43
2022-12-23T06:21:25.556Z,6.15
2022-12-23T06:26:27.156Z,6.88
2022-12-23T06:31:28.635Z,7.95
2022-12-23T06:36:30.022Z,7.05
2022-12-23T06:41:31.455Z,7.80
2022-12-23T06:46:32.947Z,6.75
2022-12-23T06:51:34.553Z,9.02
2022-12-23T06:56:36.027Z,8.27
2022-12-23T07:01:37.595Z,8.52
2022-12-23T07:06:39.790Z,9.65
2022-12-23T07:11:47.169Z,9.15
2022-12-23T07:16:48.739Z,8.52
2022-12-23T07:21:50.367Z,9.05
2022-12-23T07:26:51.987Z,7.82
2022-12-23T07:31:53.618Z,7.53
2022-12-23T07:36:55.716Z,7.60
2022-12-23T07:42:25.045Z,9.10
2022-12-23T07:47:18.593Z,9.48
2022-12-23T07:52:20.004Z,10.45
2022-12-23T07:57:21.436Z,9.60
2022-12-23T08:02:25.279Z,10.07
2022-12-23T08:07:28.371Z,10.30
2022-12-23T08:12:30.059Z,11.70
2022-12-23T08:17:31.551Z,11.88
2022-12-23T08:22:33.197Z,13.07
2022-12-23T08:27:35.784Z,14.95
2022-12-23T08:32:37.191Z,17.58
2022-12-23T08:37:45.411Z,18.30
2022-12-23T08:42:46.969Z,19.23
2022-12-23T08:47:48.361Z,19.38
2022-12-23T08:52:49.824Z,20.27
2022-12-23T08:57:51.275Z,20.48
2022-12-23T09:02:52.788Z,17.95
2022-12-23T09:07:54.674Z,19.92
2022-12-23T09:12:58.264Z,18.70
2022-12-23T09:17:59.750Z,18.35
2022-12-23T09:23:02.286Z,17.90
2022-12-23T09:28:05.200Z,17.83
2022-12-23T09:33:06.747Z,18.88
2022-12-23T09:38:08.637Z,18.48
2022-12-23T09:43:20.645Z,17.80
2022-12-23T09:48:26.978Z,20.35
2022-12-23T09:54:03.200Z,17.95
2022-12-23T09:59:23.015Z,18.70
2022-12-23T10:04:42.854Z,18.63
2022-12-23T10:09:47.159Z,20.60
2022-12-23T10:14:52.582Z,21.83
2022-12-23T10:20:00.138Z,20.60
2022-12-23T10:25:05.508Z,26.38
2022-12-23T10:30:42.014Z,26.60
2022-12-23T10:35:50.402Z,28.17
2022-12-23T10:41:11.872Z,27.55
2022-12-23T10:46:27.223Z,27.92
2022-12-23T10:51:32.170Z,29.58
2022-12-23T10:56:33.700Z,30.23
2022-12-23T11:01:35.438Z,29.52
2022-12-23T11:06:42.768Z,31.98
2022-12-23T11:12:06.371Z,32.37
2022-12-23T11:17:24.149Z,33.05
2022-12-23T11:22:25.697Z,37.95
2022-12-23T11:27:27.208Z,39.72
2022-12-23T11:32:29.356Z,41.92
2022-12-23T11:37:43.536Z,40.83
2022-12-23T11:42:47.948Z,37.47
2022-12-23T11:47:53.379Z,35.08
2022-12-23T11:53:14.847Z,34.88
2022-12-23T11:58:21.372Z,34.80
2022-12-23T12:03:27.699Z,35.28
2022-12-23T12:08:39.643Z,33.15
2022-12-23T12:13:44.085Z,37.20
2022-12-23T12:18:52.099Z,33.30
2022-12-23T12:24:19.816Z,31.85
2022-12-23T12:29:39.695Z,27.70
2022-12-23T12:34:50.578Z,32.08
2022-12-23T12:39:57.498Z,28.83
2022-12-23T12:45:20.816Z,33.95
2022-12-23T12:50:27.925Z,30.70
2022-12-23T12:55:43.388Z,28.50
2022-12-23T13:01:08.376Z,26.50
2022-12-23T13:06:26.929Z,25.83
2022-12-23T13:11:35.947Z,25.92
2022-12-23T13:16:53.178Z,22.83
2022-12-23T13:22:08.095Z,28.88
2022-12-23T13:27:35.643Z,27.65
2022-12-23T13:32:51.243Z,28.77
2022-12-23T13:38:23.142Z,22.92
2022-12-23T13:43:29.815Z,21.83
2022-12-23T13:54:05.364Z,19.27
2022-12-23T13:59:11.283Z,18.13
2022-12-23T14:04:29.808Z,17.97
2022-12-23T14:09:38.489Z,19.02
2022-12-23T14:14:48.913Z,21.08
2022-12-23T14:20:29.100Z,21.33
2022-12-23T14:25:43.845Z,21.85
2022-12-23T14:30:46.106Z,19.45
2022-12-23T14:35:47.614Z,24.25
2022-12-23T14:40:57.794Z,23.90
2022-12-23T14:46:08.306Z,25.10
2022-12-23T14:51:25.279Z,21.20
2022-12-23T15:01:44.796Z,25.90
2022-12-23T15:06:51.937Z,24.30
2022-12-23T15:11:57.440Z,21.42
2022-12-23T15:16:58.989Z,22.15
2022-12-23T15:22:20.696Z,22.10
2022-12-23T15:27:28.448Z,19.80
2022-12-23T15:32:31.134Z,20.15
2022-12-23T15:37:33.819Z,20.13
2022-12-23T15:42:37.001Z,21.63
2022-12-23T15:47:39.470Z,21.67
2022-12-23T15:52:44.217Z,19.05
2022-12-23T15:57:50.544Z,18.83
2022-12-23T16:08:28.543Z,20.10
2022-12-23T16:13:33.182Z,20.83
2022-12-23T16:18:47.209Z,18.30
2022-12-23T16:23:57.738Z,18.38
2022-12-23T16:29:03.208Z,21.83
2022-12-23T16:34:08.849Z,23.67
2022-12-23T16:39:21.772Z,21.75
2022-12-23T16:44:46.653Z,23.27
2022-12-23T16:49:53.928Z,21.90
2022-12-23T16:55:02.767Z,25.20
2022-12-23T17:00:04.668Z,21.27
2022-12-23T17:05:14.537Z,33.25
2022-12-23T17:10:18.749Z,23.63
2022-12-23T17:15:25.145Z,17.50
2022-12-23T17:20:26.781Z,19.55
2022-12-23T17:25:29.851Z,19.30
2022-12-23T17:30:32.968Z,21.65
2022-12-23T17:35:53.547Z,19.13
2022-12-23T17:40:56.327Z,13.50
2022-12-23T17:46:03.016Z,10.48
2022-12-23T17:51:04.691Z,10.38
2022-12-23T17:56:21.156Z,9.50
2022-12-23T18:01:28.947Z,7.45
2022-12-23T18:06:30.411Z,9.73
2022-12-23T18:11:43.916Z,7.82
2022-12-23T18:16:51.377Z,7.75
2022-12-23T18:21:57.665Z,5.93
2022-12-23T18:26:59.165Z,3.40
2022-12-23T18:32:07.155Z,7.18
2022-12-23T18:37:11.703Z,5.07
2022-12-23T18:42:21.509Z,3.92
2022-12-23T18:47:24.788Z,7.80
2022-12-23T18:52:27.743Z,7.03
2022-12-23T18:57:31.555Z,9.65
2022-12-23T19:02:42.949Z,6.53
2022-12-23T19:07:51.781Z,7.18
2022-12-23T19:12:54.483Z,5.85
2022-12-23T19:18:07.409Z,8.88
2022-12-23T19:23:09.798Z,7.90
2022-12-23T19:28:11.779Z,7.45
2022-12-23T19:33:15.722Z,7.20
2022-12-23T19:38:19.830Z,8.40
2022-12-23T19:43:22.672Z,8.70
2022-12-23T19:48:28.242Z,8.55
2022-12-23T19:53:30.464Z,7.07
2022-12-23T19:58:37.402Z,4.32
2022-12-23T20:03:42.811Z,9.38
2022-12-23T20:08:47.785Z,15.15
2022-12-23T20:13:54.152Z,6.68
2022-12-23T20:18:56.524Z,6.60
2022-12-23T20:23:58.097Z,4.82
2022-12-23T20:28:59.678Z,5.57
2022-12-23T20:34:05.871Z,6.25
2022-12-23T20:39:10.346Z,5.35
2022-12-23T20:49:36.304Z,4.88
2022-12-23T20:54:37.885Z,4.18
2022-12-23T20:59:39.340Z,3.97
2022-12-23T21:04:43.230Z,5.75
2022-12-23T21:09:44.648Z,2.80
2022-12-23T21:14:46.053Z,4.88
2022-12-23T21:19:51.062Z,7.13
2022-12-23T21:24:53.769Z,4.07
2022-12-23T21:29:55.318Z,4.07
2022-12-23T21:34:58.040Z,4.40
2022-12-23T21:40:01.746Z,6.72
2022-12-23T21:45:06.053Z,5.25
2022-12-23T21:50:08.565Z,3.95
2022-12-23T21:55:15.623Z,4.75
2022-12-23T22:00:17.404Z,4.50
2022-12-23T22:05:23.200Z,5.45
2022-12-23T22:10:24.685Z,3.77
2022-12-23T22:15:26.161Z,3.97
2022-12-23T22:20:30.212Z,4.75
2022-12-23T22:25:31.757Z,3.42
2022-12-23T22:30:34.600Z,4.82
2022-12-23T22:35:39.654Z,6.30
2022-12-23T22:40:41.375Z,2.90
2022-12-23T22:45:43.174Z,3.40
2022-12-23T22:50:48.557Z,4.57
2022-12-23T22:55:56.943Z,3.78
2022-12-23T23:00:59.297Z,5.50
2022-12-23T23:06:09.428Z,5.40
2022-12-23T23:11:11.055Z,5.10
2022-12-23T23:16:13.009Z,3.78
2022-12-23T23:21:17.695Z,4.18
2022-12-23T23:26:21.214Z,4.93
2022-12-23T23:31:41.735Z,3.45
2022-12-23T23:36:47.763Z,6.75
2022-12-23T23:41:51.079Z,4.13
2022-12-23T23:46:52.794Z,6.10
2022-12-23T23:51:55.677Z,5.05
2022-12-23T23:56:57.193Z,6.20
